Time;durP1;ratioP1;P1;durP2;ratioP2;P2;SDS_P1;SDS_P2;PMS_P1;PMS_P2;Temp;Humidity;BMP_temperature;BMP_pressure;BME280_temperature;BME280_humidity;BME280_pressure;Samples;Min_cycle;Max_cycle;Signal;HPM_P1;HPM_P2
2022/05/07 00:01:29;;;;;;;;;;;;;;;;;;5091811;27;20294;-70
2022/05/07 00:05:47;;;;;;;;;;;;;;;;;;5091100;27;19916;-70
2022/05/07 00:08:13;;;;;;;;;;;;;;;;;;5091322;28;20329;-70
2022/05/07 00:15:01;;;;;;;;;;;;;;;;;;5091396;27;19912;-69
2022/05/07 00:22:04;;;;;;;;;;;;;;;;;;5091927;28;20360;-69
2022/05/07 00:24:58;;;;;;;;;;;;;;;;;;5092035;27;19916;-69
2022/05/07 00:29:33;;;;;;;;;;;;;;;;;;5091560;27;19917;-70
2022/05/07 00:33:38;;;;;;;;;;;;;;;;;;5091028;27;19916;-69
2022/05/07 00:36:04;;;;;;;;;;;;;;;;;;5091159;28;19951;-69
2022/05/07 00:38:30;;;;;;;;;;;;;;;;;;5091367;28;19916;-69
2022/05/07 00:42:34;;;;;;;;;;;;;;;;;;5091234;27;19922;-70
2022/05/07 00:45:19;;;;;;;;;;;;;;;;;;5091303;27;19912;-70
2022/05/07 00:47:45;;;;;;;;;;;;;;;;;;5090776;28;19947;-70
2022/05/07 00:54:39;;;;;;;;;;;;;;;;;;5091125;27;19923;-70
2022/05/07 00:57:05;;;;;;;;;;;;;;;;;;5089910;28;20007;-70
2022/05/07 00:59:31;;;;;;;;;;;;;;;;;;5091131;28;19955;-70
2022/05/07 01:01:57;;;;;;;;;;;;;;;;;;5090676;28;19909;-70
2022/05/07 01:04:23;;;;;;;;;;;;;;;;;;5090976;28;20433;-70
2022/05/07 01:09:26;;;;;;;;;;;;;;;;;;5090985;28;19916;-69
2022/05/07 01:11:52;;;;;;;;;;;;;;;;;;5091131;28;19947;-69
2022/05/07 01:14:18;;;;;;;;;;;;;;;;;;5091092;28;20284;-71
2022/05/07 01:16:44;;;;;;;;;;;;;;;;;;5089405;28;19936;-69
2022/05/07 01:20:17;;;;;;;;;;;;;;;;;;5091696;27;19916;-69
2022/05/07 01:22:44;;;;;;;;;;;;;;;;;;5090749;28;20020;-69
2022/05/07 01:25:10;;;;;;;;;;;;;;;;;;5091190;28;20420;-69
2022/05/07 01:27:36;;;;;;;;;;;;;;;;;;5091197;28;19947;-70
2022/05/07 01:30:39;;;;;;;;;;;;;;;;;;5152349;27;20018;-70
2022/05/07 01:33:05;;;;;;;;;;;;;;;;;;5152811;27;19911;-69
2022/05/07 01:38:20;;;;;;;;;;;;;;;;;;5153126;27;20010;-69
2022/05/07 01:40:46;;;;;;;;;;;;;;;;;;5152673;27;19955;-70
2022/05/07 01:43:13;;;;;;;;;;;;;;;;;;5152274;27;19914;-70
2022/05/07 01:45:39;;;;;;;;;;;;;;;;;;5152693;27;20006;-70
2022/05/07 01:48:11;;;;;;;;;;;;;;;;;;5152791;27;19907;-70
2022/05/07 01:53:16;;;;;;;;;;;;;;;;;;5091719;27;19916;-69
2022/05/07 01:55:43;;;;;;;;;;;;;;;;;;5089854;28;19955;-69
2022/05/07 02:02:08;;;;;;;;;;;;;;;;;;5091744;27;19916;-69
2022/05/07 02:04:34;;;;;;;;;;;;;;;;;;5090703;28;20381;-69
2022/05/07 02:07:40;;;;;;;;;;;;;;;;;;5092004;27;19923;-70
2022/05/07 02:12:16;;;;;;;;;;;;;;;;;;5091010;27;20407;-70
2022/05/07 02:17:02;;;;;;;;;;;;;;;;;;5091847;28;20303;-69
2022/05/07 02:19:28;;;;;;;;;;;;;;;;;;5090835;28;19913;-71
2022/05/07 02:23:18;;;;;;;;;;;;;;;;;;5091571;27;19950;-70
2022/05/07 02:25:44;;;;;;;;;;;;;;;;;;5089493;28;19956;-70
2022/05/07 02:29:25;;;;;;;;;;;;;;;;;;5091672;27;19916;-70
2022/05/07 02:32:06;;;;;;;;;;;;;;;;;;5091363;28;19912;-71
2022/05/07 02:35:14;;;;;;;;;;;;;;;;;;5091738;27;19912;-69
2022/05/07 02:37:40;;;;;;;;;;;;;;;;;;5091174;28;19920;-69
2022/05/07 02:42:33;;;;;;;;;;;;;;;;;;5091133;27;19916;-70
2022/05/07 02:43:17;;;;;;;;;;;;;;;;;;5091153;28;20360;-70
2022/05/07 02:45:43;;;;;;;;;;;;;;;;;;5091118;28;20361;-69
2022/05/07 02:48:55;;;;;;;;;;;;;;;;;;5091239;27;19917;-69
2022/05/07 02:53:37;;;;;;;;;;;;;;;;;;5091243;27;19923;-69
2022/05/07 02:56:03;;;;;;;;;;;;;;;;;;5091322;28;20337;-70
2022/05/07 02:58:29;;;;;;;;;;;;;;;;;;5091204;28;19908;-71
2022/05/07 03:00:55;;;;;;;;;;;;;;;;;;5090636;28;19915;-71
2022/05/07 03:03:21;;;;;;;;;;;;;;;;;;5090952;28;19908;-70
2022/05/07 03:05:47;;;;;;;;;;;;;;;;;;5091240;28;19908;-70
2022/05/07 03:08:13;;;;;;;;;;;;;;;;;;5089335;28;19915;-70
2022/05/07 03:12:10;;;;;;;;;;;;;;;;;;5091278;28;20307;-70
2022/05/07 03:14:36;;;;;;;;;;;;;;;;;;5090880;28;20284;-70
2022/05/07 03:18:15;;;;;;;;;;;;;;;;;;5091511;27;19923;-70
2022/05/07 03:20:41;;;;;;;;;;;;;;;;;;5091117;28;19954;-70
2022/05/07 03:23:07;;;;;;;;;;;;;;;;;;5090761;28;19908;-71
2022/05/07 03:25:33;;;;;;;;;;;;;;;;;;5091564;28;20014;-71
2022/05/07 03:27:59;;;;;;;;;;;;;;;;;;5091094;28;19919;-71
2022/05/07 03:30:25;;;;;;;;;;;;;;;;;;5090712;28;19913;-71
2022/05/07 03:33:48;;;;;;;;;;;;;;;;;;5152817;27;20006;-70
2022/05/07 03:36:15;;;;;;;;;;;;;;;;;;5152358;27;19911;-70
2022/05/07 03:38:41;;;;;;;;;;;;;;;;;;5152714;27;19908;-70
2022/05/07 03:41:07;;;;;;;;;;;;;;;;;;5153150;27;19946;-70
2022/05/07 03:45:27;;;;;;;;;;;;;;;;;;5091488;27;19917;-70
2022/05/07 03:49:50;;;;;;;;;;;;;;;;;;5152765;27;20379;-69
2022/05/07 03:55:00;;;;;;;;;;;;;;;;;;5152771;27;20007;-70
2022/05/07 03:57:26;;;;;;;;;;;;;;;;;;5152338;27;20351;-69
2022/05/07 03:59:52;;;;;;;;;;;;;;;;;;5152655;27;19947;-70
2022/05/07 04:03:08;;;;;;;;;;;;;;;;;;5152992;27;19911;-69
2022/05/07 04:05:34;;;;;;;;;;;;;;;;;;5152327;27;19911;-70
2022/05/07 04:08:00;;;;;;;;;;;;;;;;;;5152733;27;19925;-69
2022/05/07 04:10:26;;;;;;;;;;;;;;;;;;5152751;27;20363;-70
2022/05/07 04:12:52;;;;;;;;;;;;;;;;;;5152193;27;19907;-70
2022/05/07 04:15:56;;;;;;;;;;;;;;;;;;5091448;27;19916;-70
2022/05/07 04:20:16;;;;;;;;;;;;;;;;;;5091849;28;19927;-69
2022/05/07 04:22:53;;;;;;;;;;;;;;;;;;5091399;27;20402;-70
2022/05/07 04:27:11;;;;;;;;;;;;;;;;;;5152982;27;20018;-70
2022/05/07 04:29:37;;;;;;;;;;;;;;;;;;5152719;27;19946;-71
2022/05/07 04:32:03;;;;;;;;;;;;;;;;;;5152221;27;20003;-70
2022/05/07 04:34:29;;;;;;;;;;;;;;;;;;5152668;27;19911;-70
2022/05/07 04:37:31;;;;;;;;;;;;;;;;;;5092142;27;19916;-70
2022/05/07 04:42:03;;;;;;;;;;;;;;;;;;5091605;27;20295;-70
2022/05/07 04:44:29;;;;;;;;;;;;;;;;;;5091396;28;19916;-70
2022/05/07 04:47:23;;;;;;;;;;;;;;;;;;5091023;28;19919;-70
2022/05/07 04:49:49;;;;;;;;;;;;;;;;;;5091254;28;20356;-70
2022/05/07 04:56:50;;;;;;;;;;;;;;;;;;5091530;27;19912;-70
2022/05/07 04:59:16;;;;;;;;;;;;;;;;;;5091148;28;19944;-70
2022/05/07 05:01:42;;;;;;;;;;;;;;;;;;5089508;28;19954;-70
2022/05/07 05:06:52;;;;;;;;;;;;;;;;;;5090968;27;19916;-70
2022/05/07 05:09:18;;;;;;;;;;;;;;;;;;5091209;28;20426;-70
2022/05/07 05:12:17;;;;;;;;;;;;;;;;;;5153050;27;20013;-71
2022/05/07 05:15:04;;;;;;;;;;;;;;;;;;5152301;27;19912;-71
2022/05/07 05:18:36;;;;;;;;;;;;;;;;;;5091510;27;19957;-70
2022/05/07 05:21:02;;;;;;;;;;;;;;;;;;5090777;28;20329;-71
2022/05/07 05:25:35;;;;;;;;;;;;;;;;;;5174469;27;19911;-71
2022/05/07 05:28:01;;;;;;;;;;;;;;;;;;5173272;27;20401;-72
2022/05/07 05:32:58;;;;;;;;;;;;;;;;;;5124197;27;19916;-69
2022/05/07 05:38:22;;;;;;;;;;;;;;;;;;5091898;27;20278;-70
2022/05/07 05:40:48;;;;;;;;;;;;;;;;;;5091759;28;19916;-70
2022/05/07 05:43:14;;;;;;;;;;;;;;;;;;5090813;28;20262;-70
2022/05/07 05:45:40;;;;;;;;;;;;;;;;;;5091204;28;19915;-70
2022/05/07 05:48:06;;;;;;;;;;;;;;;;;;5091294;28;20396;-71
2022/05/07 05:50:32;;;;;;;;;;;;;;;;;;5090869;28;19912;-71
2022/05/07 05:52:58;;;;;;;;;;;;;;;;;;5091035;28;20372;-71
2022/05/07 05:55:23;;;;;;;;;;;;;;;;;;5091022;28;19908;-69
2022/05/07 05:57:50;;;;;;;;;;;;;;;;;;5089206;28;19917;-71
2022/05/07 06:02:46;;;;;;;;;;;;;;;;;;5091823;27;20308;-70
2022/05/07 06:06:31;;;;;;;;;;;;;;;;;;5091603;27;20290;-70
2022/05/07 06:08:57;;;;;;;;;;;;;;;;;;5091473;28;19918;-70
2022/05/07 06:11:23;;;;;;;;;;;;;;;;;;5090832;28;19987;-70
2022/05/07 06:13:50;;;;;;;;;;;;;;;;;;5091221;28;19931;-71
2022/05/07 06:16:17;;;;;;;;;;;;;;;;;;5091141;28;19909;-71
2022/05/07 06:18:43;;;;;;;;;;;;;;;;;;5090716;28;19909;-71
2022/05/07 06:21:09;;;;;;;;;;;;;;;;;;5091027;28;19915;-71
2022/05/07 06:23:35;;;;;;;;;;;;;;;;;;5090962;28;20387;-71
2022/05/07 06:29:34;;;;;;;;;;;;;;;;;;5092007;27;20264;-71
2022/05/07 06:33:58;;;;;;;;;;;;;;;;;;5153030;27;20447;-69
2022/05/07 06:37:36;;;;;;;;;;;;;;;;;;5091664;28;19916;-70
2022/05/07 06:40:03;;;;;;;;;;;;;;;;;;5089597;28;20007;-70
2022/05/07 06:42:28;;;;;;;;;;;;;;;;;;5089918;28;19909;-70
2022/05/07 06:44:54;;;;;;;;;;;;;;;;;;5091148;28;20262;-70
2022/05/07 06:47:20;;;;;;;;;;;;;;;;;;5090707;28;19908;-70
2022/05/07 06:49:46;;;;;;;;;;;;;;;;;;5091099;28;19915;-70
2022/05/07 06:52:12;;;;;;;;;;;;;;;;;;5091008;28;19915;-70
2022/05/07 07:01:02;;;;;;;;;;;;;;;;;;5091052;28;19916;-72
2022/05/07 07:03:28;;;;;;;;;;;;;;;;;;5091277;28;19913;-72
2022/05/07 07:05:54;;;;;;;;;;;;;;;;;;5091422;28;20420;-71
2022/05/07 07:08:20;;;;;;;;;;;;;;;;;;5090790;28;19996;-70
2022/05/07 07:10:47;;;;;;;;;;;;;;;;;;5091045;28;19909;-70
2022/05/07 07:15:48;;;;;;;;;;;;;;;;;;5153106;27;20014;-69
2022/05/07 07:19:16;;;;;;;;;;;;;;;;;;5091562;27;20329;-69
2022/05/07 07:21:42;;;;;;;;;;;;;;;;;;5090931;28;19938;-72
2022/05/07 07:26:42;;;;;;;;;;;;;;;;;;5153267;27;20010;-70
2022/05/07 07:35:06;;;;;;;;;;;;;;;;;;5091457;28;20411;-71
2022/05/07 07:37:32;;;;;;;;;;;;;;;;;;5091177;28;19973;-71
2022/05/07 07:41:31;;;;;;;;;;;;;;;;;;5091632;27;19916;-70
2022/05/07 07:43:57;;;;;;;;;;;;;;;;;;5091260;28;19918;-71
2022/05/07 07:51:43;;;;;;;;;;;;;;;;;;5091543;27;19938;-69
2022/05/07 07:56:18;;;;;;;;;;;;;;;;;;5091374;27;19916;-70
2022/05/07 08:04:25;;;;;;;;;;;;;;;;;;5152474;27;19918;-70
2022/05/07 08:11:40;;;;;;;;;;;;;;;;;;5134238;27;19922;-70
2022/05/07 08:13:18;;;;;;;;;;;;;;;;;;5091421;28;20269;-71
2022/05/07 08:17:52;;;;;;;;;;;;;;;;;;5091227;28;19916;-70
2022/05/07 08:20:18;;;;;;;;;;;;;;;;;;5091130;28;19931;-70
2022/05/07 08:22:44;;;;;;;;;;;;;;;;;;5091671;28;19915;-70
2022/05/07 08:25:10;;;;;;;;;;;;;;;;;;5089390;28;19913;-70
2022/05/07 08:27:37;;;;;;;;;;;;;;;;;;5091387;28;19915;-70
2022/05/07 08:31:44;;;;;;;;;;;;;;;;;;5090961;28;19916;-70
2022/05/07 08:34:51;;;;;;;;;;;;;;;;;;5091237;27;20380;-69
2022/05/07 08:37:17;;;;;;;;;;;;;;;;;;5091250;28;19952;-69
2022/05/07 08:44:18;;;;;;;;;;;;;;;;;;5092083;27;19917;-70
2022/05/07 08:47:44;;;;;;;;;;;;;;;;;;5091335;27;19923;-70
2022/05/07 08:52:24;;;;;;;;;;;;;;;;;;5091056;27;19917;-70
2022/05/07 08:54:50;;;;;;;;;;;;;;;;;;5091225;28;19943;-70
2022/05/07 08:58:47;;;;;;;;;;;;;;;;;;5091288;28;19916;-71
2022/05/07 09:11:09;;;;;;;;;;;;;;;;;;5091572;27;19917;-70
2022/05/07 09:13:35;;;;;;;;;;;;;;;;;;5091052;28;19943;-70
2022/05/07 09:30:25;;;;;;;;;;;;;;;;;;5091837;28;19922;-70
2022/05/07 09:32:51;;;;;;;;;;;;;;;;;;5089986;28;19999;-70
2022/05/07 09:38:02;;;;;;;;;;;;;;;;;;5091101;28;19959;-70
2022/05/07 09:43:11;;;;;;;;;;;;;;;;;;5090821;27;19917;-70
2022/05/07 09:45:37;;;;;;;;;;;;;;;;;;5091459;28;19956;-70
2022/05/07 09:48:03;;;;;;;;;;;;;;;;;;5091415;28;20379;-70
2022/05/07 09:58:31;;;;;;;;;;;;;;;;;;5090914;28;19970;-69
2022/05/07 10:00:57;;;;;;;;;;;;;;;;;;5089537;28;19915;-70
2022/05/07 10:03:23;;;;;;;;;;;;;;;;;;5090484;28;19908;-70
2022/05/07 10:06:28;;;;;;;;;;;;;;;;;;5091366;27;20269;-70
2022/05/07 10:08:54;;;;;;;;;;;;;;;;;;5091372;28;19913;-70
2022/05/07 10:11:20;;;;;;;;;;;;;;;;;;5090857;28;19909;-70
2022/05/07 10:13:46;;;;;;;;;;;;;;;;;;5091133;28;20276;-70
2022/05/07 10:16:12;;;;;;;;;;;;;;;;;;5090925;28;19961;-70
2022/05/07 10:18:41;;;;;;;;;;;;;;;;;;5091470;28;19908;-70
2022/05/07 10:21:07;;;;;;;;;;;;;;;;;;5091410;28;19912;-70
2022/05/07 10:24:25;;;;;;;;;;;;;;;;;;5091190;28;19916;-70
2022/05/07 10:26:51;;;;;;;;;;;;;;;;;;5091214;28;19919;-71
2022/05/07 10:29:17;;;;;;;;;;;;;;;;;;5091169;28;19909;-71
2022/05/07 10:31:46;;;;;;;;;;;;;;;;;;5090922;28;19908;-70
2022/05/07 10:34:12;;;;;;;;;;;;;;;;;;5091308;28;19995;-70
2022/05/07 10:37:18;;;;;;;;;;;;;;;;;;5091357;27;19931;-69
2022/05/07 10:39:45;;;;;;;;;;;;;;;;;;5091131;28;19913;-72
2022/05/07 10:42:11;;;;;;;;;;;;;;;;;;5091115;28;19962;-70
2022/05/07 10:44:42;;;;;;;6.15;3.70;;;;;;;;;;5090143;28;20380;-70
2022/05/07 10:47:11;;;;;;;6.00;3.30;;;;;;;;;;5090613;28;20043;-70
2022/05/07 10:49:56;;;;;;;6.35;3.50;;;;;;;;;;5090687;28;20029;-70
2022/05/07 10:52:29;;;;;;;6.00;2.95;;;;;;;;;;5090095;28;20087;-70
2022/05/07 10:56:51;;;;;;;6.70;3.45;;;;;;;;;;5111989;27;20384;-70
2022/05/07 10:59:19;;;;;;;5.28;2.92;;;;;;;;;;5110794;28;20031;-69
2022/05/07 11:04:24;;;;;;;4.55;3.30;;;;;;;;;;5111492;27;20922;-70
2022/05/07 11:06:54;;;;;;;4.45;2.72;;;;;;;;;;5110738;28;20395;-70
2022/05/07 11:11:24;;;;;;;8.15;3.00;;;;;;;;;;5111660;27;20396;-70
2022/05/07 11:15:42;;;;;;;5.95;3.20;;;;;;;;;;5111733;27;20396;-70
2022/05/07 11:18:15;;;;;;;5.47;3.05;;;;;;;;;;5111676;28;20474;-70
2022/05/07 11:20:42;;;;;;;4.90;2.78;;;;;;;;;;5110706;28;20082;-69
2022/05/07 11:23:12;;;;;;;3.92;2.50;;;;;;;;;;5111063;28;20024;-70
2022/05/07 11:25:40;;;;;;;5.57;2.55;;;;;;;;;;5111284;28;20098;-72
2022/05/07 11:31:05;;;;;;;5.97;3.13;;;;;;;;;;5131829;27;20506;-71
2022/05/07 11:33:31;;;;;;;6.63;3.08;;;;;;;;;;5092955;28;20031;-70
2022/05/07 11:36:07;;;;;;;4.55;2.75;;;;;;;;;;5110725;28;20027;-70
2022/05/07 11:38:37;;;;;;;6.43;2.65;;;;;;;;;;5111341;28;20387;-70
2022/05/07 11:41:10;;;;;;;2.85;2.08;;;;;;;;;;5092274;28;20107;-70
2022/05/07 11:46:21;;;;;;;7.35;3.38;;;;;;;;;;5111249;28;20035;-70
2022/05/07 11:48:47;;;;;;;4.78;2.40;;;;;;;;;;5110348;28;20024;-70
2022/05/07 11:53:58;;;;;;;4.13;2.40;;;;;;;;;;5091834;27;20420;-70
2022/05/07 11:56:24;;;;;;;6.05;2.80;;;;;;;;;;5090380;28;20032;-70
2022/05/07 11:58:51;;;;;;;6.43;3.42;;;;;;;;;;5090648;28;20063;-70
2022/05/07 12:01:21;;;;;;;4.57;2.53;;;;;;;;;;5090720;28;20024;-70
2022/05/07 12:03:48;;;;;;;4.93;2.53;;;;;;;;;;5090330;28;20514;-70
2022/05/07 12:06:30;;;;;;;7.45;3.00;;;;;;;;;;5090631;28;20496;-70
2022/05/07 12:08:57;;;;;;;3.78;2.30;;;;;;;;;;5090154;28;20091;-70
2022/05/07 12:11:24;;;;;;;4.20;2.25;;;;;;;;;;5090478;28;20059;-70
2022/05/07 12:13:50;;;;;;;5.70;2.53;;;;;;;;;;5090603;28;20036;-70
2022/05/07 12:19:02;;;;;;;8.48;2.40;;;;;;;;;;5090386;28;20035;-70
2022/05/07 12:29:49;;;;;;;4.45;2.15;;;;;;;;;;5090257;28;20523;-70
2022/05/07 12:32:15;;;;;;;4.32;2.35;;;;;;;;;;5090367;28;20025;-70
2022/05/07 12:34:41;;;;;;;3.95;2.28;;;;;;;;;;5090068;28;20028;-70
2022/05/07 12:37:08;;;;;;;4.43;2.20;;;;;;;;;;5089766;28;20024;-70
2022/05/07 12:39:34;;;;;;;4.50;2.17;;;;;;;;;;5089983;28;20020;-70
2022/05/07 12:42:11;;;;;;;5.78;2.10;;;;;;;;;;5090265;28;20020;-70
2022/05/07 12:44:38;;;;;;;3.40;2.03;;;;;;;;;;5089535;28;20095;-71
2022/05/07 12:47:07;;;;;;;3.85;2.20;;;;;;;;;;5089972;28;20426;-71
2022/05/07 12:49:33;;;;;;;4.13;1.88;;;;;;;;;;5089949;28;20024;-70
2022/05/07 12:52:02;;;;;;;4.72;2.15;;;;;;;;;;5089244;28;20056;-70
2022/05/07 12:54:29;;;;;;;6.05;2.00;;;;;;;;;;5089994;28;20020;-70
2022/05/07 12:56:55;;;;;;;5.75;2.20;;;;;;;;;;5089622;28;20416;-70
2022/05/07 12:59:21;;;;;;;3.97;2.28;;;;;;;;;;5087917;28;20023;-70
2022/05/07 13:01:48;;;;;;;5.60;2.38;;;;;;;;;;5089471;28;20023;-70
2022/05/07 13:04:14;;;;;;;4.30;1.92;;;;;;;;;;5082007;28;20035;-71
2022/05/07 13:06:40;;;;;;;4.45;2.03;;;;;;;;;;5075669;28;20436;-71
2022/05/07 13:09:06;;;;;;;3.25;1.92;;;;;;;;;;5076704;28;20032;-70
2022/05/07 13:11:33;;;;;;;2.55;1.77;;;;;;;;;;5075906;28;20051;-70
2022/05/07 13:13:59;;;;;;;8.25;2.85;;;;;;;;;;5075500;28;20028;-70
2022/05/07 13:16:25;;;;;;;6.43;2.30;;;;;;;;;;5075947;28;20086;-71
2022/05/07 13:18:51;;;;;;;4.75;2.10;;;;;;;;;;5075737;28;20169;-71
2022/05/07 13:21:17;;;;;;;3.15;2.25;;;;;;;;;;5075279;28;20020;-71
2022/05/07 13:23:44;;;;;;;4.47;2.30;;;;;;;;;;5075680;28;20025;-71
2022/05/07 13:26:10;;;;;;;7.45;2.33;;;;;;;;;;5075282;28;20477;-71
2022/05/07 13:28:36;;;;;;;3.67;1.98;;;;;;;;;;5075830;28;20028;-72
2022/05/07 13:31:02;;;;;;;6.90;2.00;;;;;;;;;;5075597;28;20111;-72
2022/05/07 13:33:29;;;;;;;4.25;2.40;;;;;;;;;;5075156;28;20047;-71
2022/05/07 13:35:56;;;;;;;4.53;2.13;;;;;;;;;;5075770;28;20044;-71
2022/05/07 13:38:23;;;;;;;8.18;2.40;;;;;;;;;;5074146;28;20469;-71
2022/05/07 13:40:49;;;;;;;5.03;1.77;;;;;;;;;;5075037;28;20095;-71
2022/05/07 13:43:15;;;;;;;4.70;1.95;;;;;;;;;;5074087;28;20131;-71
2022/05/07 13:45:41;;;;;;;4.47;2.08;;;;;;;;;;5075439;28;20125;-71
2022/05/07 13:48:08;;;;;;;5.85;2.08;;;;;;;;;;5074856;28;20021;-71
2022/05/07 13:50:34;;;;;;;2.83;1.77;;;;;;;;;;5075471;28;20334;-71
2022/05/07 13:53:00;;;;;;;3.40;2.00;;;;;;;;;;5074930;28;20059;-71
2022/05/07 13:55:27;;;;;;;4.68;1.90;;;;;;;;;;5074813;28;20420;-70
2022/05/07 13:57:53;;;;;;;3.10;1.70;;;;;;;;;;5075080;28;20028;-71
2022/05/07 14:00:20;;;;;;;5.07;2.10;;;;;;;;;;5075079;28;20020;-72
2022/05/07 14:02:47;;;;;;;4.43;1.95;;;;;;;;;;5074556;28;20021;-71
2022/05/07 14:05:17;;;;;;;2.78;1.70;;;;;;;;;;5074987;28;20044;-71
2022/05/07 14:07:44;;;;;;;4.72;1.88;;;;;;;;;;5074851;28;20028;-70
2022/05/07 14:10:10;;;;;;;5.13;1.92;;;;;;;;;;5074467;28;20017;-72
2022/05/07 14:12:37;;;;;;;4.38;2.20;;;;;;;;;;5074936;28;20477;-71
2022/05/07 14:15:05;;;;;;;4.30;2.05;;;;;;;;;;5074045;28;20033;-72
2022/05/07 14:17:32;;;;;;;3.92;2.35;;;;;;;;;;5073906;28;20024;-72
2022/05/07 14:19:59;;;;;;;3.20;2.25;;;;;;;;;;5074736;28;20025;-71
2022/05/07 14:22:26;;;;;;;5.32;2.00;;;;;;;;;;5074177;28;20024;-72
2022/05/07 14:24:54;;;;;;;2.30;1.45;;;;;;;;;;5074763;28;20020;-72
2022/05/07 14:27:20;;;;;;;6.10;2.25;;;;;;;;;;5074532;28;20017;-72
2022/05/07 14:29:47;;;;;;;5.82;1.75;;;;;;;;;;5074033;28;20016;-72
2022/05/07 14:32:13;;;;;;;3.75;1.80;;;;;;;;;;5074511;28;20088;-72
2022/05/07 14:34:39;;;;;;;7.63;2.40;;;;;;;;;;5072987;28;20024;-72
2022/05/07 14:37:06;;;;;;;3.40;1.60;;;;;;;;;;5072550;28;20374;-71
2022/05/07 14:39:32;;;;;;;2.95;1.48;;;;;;;;;;5074304;28;20515;-71
2022/05/07 14:41:58;;;;;;;2.75;1.40;;;;;;;;;;5074163;28;20025;-71
2022/05/07 14:44:25;;;;;;;2.83;1.60;;;;;;;;;;5073748;28;20027;-71
2022/05/07 14:46:51;;;;;;;2.22;1.45;;;;;;;;;;5074338;28;20504;-73
2022/05/07 14:49:17;;;;;;;3.63;1.83;;;;;;;;;;5073888;28;20028;-70
2022/05/07 14:51:43;;;;;;;2.75;1.38;;;;;;;;;;5073329;28;20024;-71
2022/05/07 14:54:09;;;;;;;2.47;1.50;;;;;;;;;;5074280;28;20021;-70
2022/05/07 14:56:35;;;;;;;4.80;1.90;;;;;;;;;;5074204;28;20020;-70
2022/05/07 14:59:02;;;;;;;5.80;1.95;;;;;;;;;;5072119;28;20082;-70
2022/05/07 15:01:28;;;;;;;6.07;2.38;;;;;;;;;;5074221;28;20020;-70
2022/05/07 15:03:54;;;;;;;2.72;1.83;;;;;;;;;;5074059;28;20025;-70
2022/05/07 15:06:20;;;;;;;7.88;2.35;;;;;;;;;;5073476;28;20016;-70
2022/05/07 15:11:32;;;;;;;2.88;1.50;;;;;;;;;;5073834;28;20511;-70
2022/05/07 15:14:01;;;;;;;5.65;2.10;;;;;;;;;;5073252;28;20024;-71
2022/05/07 15:16:27;;;;;;;11.00;1.90;;;;;;;;;;5073692;28;20020;-71
2022/05/07 15:18:55;;;;;;;5.63;1.88;;;;;;;;;;5073118;28;20477;-70
2022/05/07 15:21:23;;;;;;;5.65;1.85;;;;;;;;;;5073723;28;20104;-70
2022/05/07 15:23:50;;;;;;;3.60;1.85;;;;;;;;;;5073503;28;20027;-70
2022/05/07 15:26:16;;;;;;;4.43;1.80;;;;;;;;;;5072952;28;20052;-71
2022/05/07 15:28:43;;;;;;;2.58;1.63;;;;;;;;;;5073336;28;20529;-71
2022/05/07 15:31:09;;;;;;;4.65;2.10;;;;;;;;;;5073323;28;20104;-71
2022/05/07 15:39:06;;;;;;;4.43;2.17;;;;;;;;;;5073270;28;20086;-71
2022/05/07 15:41:32;;;;;;;8.57;2.30;;;;;;;;;;5072939;28;20020;-72
2022/05/07 15:43:58;;;;;;;5.97;2.20;;;;;;;;;;5073293;28;20384;-71
2022/05/07 15:46:26;;;;;;;6.72;2.17;;;;;;;;;;5073567;28;20032;-71
2022/05/07 15:48:53;;;;;;;7.40;2.45;;;;;;;;;;5072843;28;20021;-71
2022/05/07 15:51:20;;;;;;;4.35;1.88;;;;;;;;;;5073208;28;20024;-71
2022/05/07 15:53:46;;;;;;;4.25;1.75;;;;;;;;;;5072951;28;20044;-71
2022/05/07 15:56:12;;;;;;;3.95;2.00;;;;;;;;;;5072771;28;20020;-71
2022/05/07 15:58:41;;;;;;;3.88;1.88;;;;;;;;;;5073082;28;20029;-71
2022/05/07 16:01:08;;;;;;;5.00;2.28;;;;;;;;;;5072671;28;20016;-70
2022/05/07 16:03:34;;;;;;;3.63;2.10;;;;;;;;;;5073126;28;20024;-71
2022/05/07 16:06:01;;;;;;;5.50;2.15;;;;;;;;;;5073076;28;20048;-71
2022/05/07 16:08:27;;;;;;;7.18;2.17;;;;;;;;;;5072672;28;20035;-71
2022/05/07 16:10:53;;;;;;;6.55;2.22;;;;;;;;;;5072968;28;20025;-71
2022/05/07 16:13:20;;;;;;;5.30;2.28;;;;;;;;;;5072905;28;20029;-71
2022/05/07 16:15:46;;;;;;;6.85;2.20;;;;;;;;;;5072589;28;20387;-71
2022/05/07 16:18:13;;;;;;;4.45;2.00;;;;;;;;;;5072770;28;20473;-72
2022/05/07 16:20:39;;;;;;;6.63;2.35;;;;;;;;;;5072922;28;20070;-72
2022/05/07 16:25:51;;;;;;;4.35;2.42;;;;;;;;;;5072958;28;20419;-72
2022/05/07 16:28:17;;;;;;;;;;;;;;;;;;5073224;28;20098;-71
2022/05/07 16:30:43;;;;;;;;;;;;;;;;;;5072838;28;19908;-72
2022/05/07 16:33:09;;;;;;;;;;;;;;;;;;5073137;28;19919;-71
2022/05/07 16:35:37;;;;;;;;;;;;;;;;;;5073373;28;19908;-70
2022/05/07 16:38:03;;;;;;;;;;;;;;;;;;5075080;28;19911;-69
2022/05/07 16:44:17;;;;;;;;;;;;;;;;;;5091183;28;19916;-70
2022/05/07 16:46:43;;;;;;;;;;;;;;;;;;5091220;28;20007;-70
2022/05/07 16:50:14;;;;;;;;;;;;;;;;;;5091112;27;19918;-70
2022/05/07 16:52:41;;;;;;;;;;;;;;;;;;5091194;28;20297;-70
2022/05/07 16:55:07;;;;;;;;;;;;;;;;;;5089815;28;19922;-70
2022/05/07 16:57:33;;;;;;;;;;;;;;;;;;5090877;28;19983;-71
2022/05/07 17:01:57;;;;;;;;;;;;;;;;;;5091697;28;19922;-70
2022/05/07 17:04:24;;;;;;;;;;;;;;;;;;5091204;28;20351;-72
2022/05/07 17:09:24;;;;;;;;;;;;;;;;;;5091347;27;19923;-70
2022/05/07 17:12:40;;;;;;;;;;;;;;;;;;5091152;28;19922;-72
2022/05/07 17:18:00;;;;;;;;;;;;;;;;;;5091312;28;20311;-70
2022/05/07 17:20:26;;;;;;;;;;;;;;;;;;5090945;28;20403;-72
2022/05/07 17:23:44;;;;;;;;;;;;;;;;;;5091321;27;19916;-70
2022/05/07 17:26:38;;;;;;;;;;;;;;;;;;5090960;27;19912;-71
2022/05/07 17:29:04;;;;;;;;;;;;;;;;;;5091358;28;19913;-70
2022/05/07 17:31:30;;;;;;;;;;;;;;;;;;5091469;28;19924;-72
2022/05/07 17:34:10;;;;;;;;;;;;;;;;;;5090795;27;19916;-71
2022/05/07 17:40:35;;;;;;;;;;;;;;;;;;5091051;27;19913;-70
2022/05/07 17:43:37;;;;;;;;;;;;;;;;;;5092003;27;19912;-71
2022/05/07 17:52:49;;;;;;;;;;;;;;;;;;5091608;27;19916;-71
2022/05/07 17:57:44;;;;;;;;;;;;;;;;;;5133023;27;19916;-72
2022/05/07 18:00:10;;;;;;;;;;;;;;;;;;5132183;28;19919;-71
2022/05/07 18:03:00;;;;;;;;;;;;;;;;;;5091354;27;20373;-70
2022/05/07 18:05:27;;;;;;;;;;;;;;;;;;5091509;28;19924;-72
2022/05/07 18:14:27;;;;;;;;;;;;;;;;;;5091531;27;19913;-71
2022/05/07 18:16:53;;;;;;;;;;;;;;;;;;5090850;28;19912;-71
2022/05/07 18:19:36;;;;;;;;;;;;;;;;;;5091806;27;19916;-71
2022/05/07 18:22:03;;;;;;;;;;;;;;;;;;5091259;28;19965;-71
2022/05/07 18:24:29;;;;;;;;;;;;;;;;;;5091168;28;19908;-71
2022/05/07 18:26:57;;;;;;;;;;;;;;;;;;5091259;28;19939;-71
2022/05/07 18:31:42;;;;;;;;;;;;;;;;;;5091656;27;19917;-69
2022/05/07 18:34:08;;;;;;;;;;;;;;;;;;5091810;28;19917;-70
2022/05/07 18:48:33;;;;;;;;;;;;;;;;;;5091555;27;20017;-71
2022/05/07 18:52:30;;;;;;;;;;;;;;;;;;5091904;27;19935;-71
2022/05/07 18:54:56;;;;;;;;;;;;;;;;;;5089857;28;20347;-70
2022/05/07 18:59:23;;;;;;;;;;;;;;;;;;5091577;27;19919;-70
2022/05/07 19:01:49;;;;;;;;;;;;;;;;;;5091143;28;19949;-70
2022/05/07 19:04:15;;;;;;;;;;;;;;;;;;5090797;28;19912;-70
2022/05/07 19:07:18;;;;;;;;;;;;;;;;;;5091612;28;19922;-70
2022/05/07 19:11:41;;;;;;;;;;;;;;;;;;5091113;27;19916;-70
2022/05/07 19:15:37;;;;;;;;;;;;;;;;;;5091714;27;19916;-71
2022/05/07 19:22:02;;;;;;;;;;;;;;;;;;5071861;28;19916;-71
2022/05/07 19:24:29;;;;;;;;;;;;;;;;;;5070913;28;19952;-71
2022/05/07 19:26:56;;;;;;;;;;;;;;;;;;5070515;28;19915;-70
2022/05/07 19:29:25;;;;;;;;;;;;;;;;;;5071082;28;20327;-70
2022/05/07 19:33:05;;;;;;;;;;;;;;;;;;5152401;27;20013;-69
2022/05/07 19:35:31;;;;;;;;;;;;;;;;;;5152563;27;19912;-70
2022/05/07 19:37:57;;;;;;;;;;;;;;;;;;5152579;27;19907;-71
2022/05/07 19:40:27;;;;;;;;;;;;;;;;;;5152242;27;19915;-71
2022/05/07 19:42:53;;;;;;;;;;;;;;;;;;5153118;27;19950;-71
2022/05/07 19:45:21;;;;;;;;;;;;;;;;;;5152421;27;19954;-71
2022/05/07 19:48:01;;;;;;;;;;;;;;;;;;5152368;27;20009;-71
2022/05/07 19:50:27;;;;;;;;;;;;;;;;;;5152660;27;20282;-71
2022/05/07 19:52:56;;;;;;;;;;;;;;;;;;5152974;27;19907;-70
2022/05/07 19:55:23;;;;;;;;;;;;;;;;;;5152519;27;20337;-70
2022/05/07 19:58:30;;;;;;;;;;;;;;;;;;5092018;28;20372;-71
2022/05/07 20:05:42;;;;;;;;;;;;;;;;;;5091556;27;20287;-71
2022/05/07 20:08:52;;;;;;;;;;;;;;;;;;5090861;27;19916;-71
2022/05/07 20:11:18;;;;;;;;;;;;;;;;;;5089793;28;20444;-71
2022/05/07 20:13:44;;;;;;;;;;;;;;;;;;5091407;28;19995;-69
2022/05/07 20:16:11;;;;;;;;;;;;;;;;;;5090787;28;20384;-70
2022/05/07 20:18:37;;;;;;;;;;;;;;;;;;5089825;28;19916;-71
2022/05/07 20:22:47;;;;;;;;;;;;;;;;;;5090779;27;20299;-69
2022/05/07 20:25:13;;;;;;;;;;;;;;;;;;5091089;28;19966;-71
2022/05/07 20:31:13;;;;;;;;;;;;;;;;;;5092113;27;19922;-70
2022/05/07 20:33:40;;;;;;;;;;;;;;;;;;5091320;28;19960;-70
2022/05/07 20:38:06;;;;;;;;;;;;;;;;;;5091741;28;19938;-70
2022/05/07 20:40:33;;;;;;;;;;;;;;;;;;5091418;28;20278;-70
2022/05/07 20:42:59;;;;;;;;;;;;;;;;;;5090750;28;19908;-70
2022/05/07 20:50:35;;;;;;;;;;;;;;;;;;5091000;27;19922;-69
2022/05/07 20:57:02;;;;;;;;;;;;;;;;;;5091026;28;19953;-69
2022/05/07 21:01:38;;;;;;;;;;;;;;;;;;5091994;28;19916;-70
2022/05/07 21:04:04;;;;;;;;;;;;;;;;;;5089565;28;19912;-70
2022/05/07 21:07:48;;;;;;;;;;;;;;;;;;5091337;27;19923;-70
2022/05/07 21:10:55;;;;;;;;;;;;;;;;;;5091493;27;19923;-69
2022/05/07 21:13:22;;;;;;;;;;;;;;;;;;5090367;28;19912;-70